createdAt,value
2023-03-04T00:00:29.425Z,-0.59
2023-03-04T00:03:16.560Z,-0.61
2023-03-04T00:05:43.593Z,-0.67
2023-03-04T00:08:10.826Z,-0.71
2023-03-04T00:10:37.759Z,-0.71
2023-03-04T00:13:05.076Z,-0.71
2023-03-04T00:15:32.065Z,-0.69
2023-03-04T00:17:59.250Z,-0.75
2023-03-04T00:20:26.146Z,-0.77
2023-03-04T00:22:53.518Z,-0.79
2023-03-04T00:25:20.487Z,-0.76
2023-03-04T00:27:47.912Z,-0.75
2023-03-04T00:30:14.903Z,-0.73
2023-03-04T00:32:42.156Z,-0.76
2023-03-04T00:35:09.417Z,-0.79
2023-03-04T00:37:36.605Z,-0.82
2023-03-04T00:40:03.922Z,-0.85
2023-03-04T00:42:31.123Z,-0.87
2023-03-04T00:44:58.054Z,-0.88
2023-03-04T00:47:25.366Z,-0.96
2023-03-04T00:49:52.518Z,-0.99
2023-03-04T00:52:19.892Z,-1.02
2023-03-04T00:54:46.751Z,-1.02
2023-03-04T00:57:14.051Z,-1.03
2023-03-04T00:59:40.969Z,-1.03
2023-03-04T01:02:08.246Z,-1.04
2023-03-04T01:04:35.212Z,-1.02
2023-03-04T01:07:02.482Z,-1.01
2023-03-04T01:09:29.431Z,-1.02
2023-03-04T01:11:56.801Z,-1.01
2023-03-04T01:14:23.844Z,-0.97
2023-03-04T01:16:51.419Z,-0.95
2023-03-04T01:19:19.052Z,-0.94
2023-03-04T01:21:46.316Z,-0.94
2023-03-04T01:24:13.306Z,-0.92
2023-03-04T01:26:40.572Z,-0.95
2023-03-04T01:29:07.588Z,-0.96
2023-03-04T01:31:34.922Z,-0.99
2023-03-04T01:34:01.939Z,-0.97
2023-03-04T01:36:29.108Z,-0.97
2023-03-04T01:38:56.270Z,-1.00
2023-03-04T01:41:25.892Z,-0.97
2023-03-04T01:43:56.730Z,-1.00
2023-03-04T01:46:24.474Z,-1.01
2023-03-04T01:48:51.439Z,-1.02
2023-03-04T01:51:21.186Z,-1.00
2023-03-04T01:53:53.326Z,-1.03
2023-03-04T01:56:28.484Z,-1.11
2023-03-04T01:59:23.976Z,-1.11
2023-03-04T02:01:54.054Z,-1.16
2023-03-04T02:04:24.117Z,-1.18
2023-03-04T02:06:52.225Z,-1.22
2023-03-04T02:09:20.046Z,-1.26
2023-03-04T02:11:49.263Z,-1.30
2023-03-04T02:14:17.340Z,-1.33
2023-03-04T02:16:44.817Z,-1.36
2023-03-04T02:19:28.382Z,-1.37
2023-03-04T02:21:55.591Z,-1.38
2023-03-04T02:24:39.671Z,-1.44
2023-03-04T02:27:07.201Z,-1.47
2023-03-04T02:29:34.227Z,-1.50
2023-03-04T02:32:01.510Z,-1.52
2023-03-04T02:34:34.404Z,-1.57
2023-03-04T02:37:03.006Z,-1.53
2023-03-04T02:39:41.435Z,-1.54
2023-03-04T02:42:09.465Z,-1.52
2023-03-04T02:44:41.838Z,-1.51
2023-03-04T02:47:11.033Z,-1.51
2023-03-04T02:49:40.014Z,-1.51
2023-03-04T02:52:10.335Z,-1.48
2023-03-04T02:54:38.902Z,-1.47
2023-03-04T02:57:09.237Z,-1.49
2023-03-04T02:59:37.848Z,-1.45
2023-03-04T03:02:05.633Z,-1.46
2023-03-04T03:04:33.563Z,-1.43
2023-03-04T03:07:00.820Z,-1.44
2023-03-04T03:09:27.801Z,-1.41
2023-03-04T03:11:54.956Z,-1.40
2023-03-04T03:14:21.801Z,-1.38
2023-03-04T03:16:49.019Z,-1.36
2023-03-04T03:19:15.880Z,-1.34
2023-03-04T03:21:43.047Z,-1.35
2023-03-04T03:24:10.101Z,-1.35
2023-03-04T03:26:37.408Z,-1.36
2023-03-04T03:29:04.367Z,-1.35
2023-03-04T03:31:31.568Z,-1.40
2023-03-04T03:33:58.483Z,-1.42
2023-03-04T03:36:25.728Z,-1.44
2023-03-04T03:38:52.733Z,-1.43
2023-03-04T03:41:19.944Z,-1.49
2023-03-04T03:43:46.757Z,-1.52
2023-03-04T03:46:13.989Z,-1.51
2023-03-04T03:48:40.880Z,-1.48
2023-03-04T03:51:08.098Z,-1.48
2023-03-04T03:53:34.961Z,-1.50
2023-03-04T03:56:02.214Z,-1.50
2023-03-04T03:58:29.056Z,-1.47
2023-03-04T04:00:58.312Z,-1.52
2023-03-04T04:03:26.026Z,-1.55
2023-03-04T04:05:53.352Z,-1.58
2023-03-04T04:08:20.396Z,-1.56
2023-03-04T04:10:47.687Z,-1.59
2023-03-04T04:13:14.616Z,-1.64
2023-03-04T04:15:41.824Z,-1.67
2023-03-04T04:18:09.670Z,-1.72
2023-03-04T04:20:36.944Z,-1.73
2023-03-04T04:23:04.065Z,-1.74
2023-03-04T04:25:31.388Z,-1.75
2023-03-04T04:27:58.255Z,-1.77
2023-03-04T04:30:25.784Z,-1.77
2023-03-04T04:32:52.712Z,-1.78
2023-03-04T04:35:20.512Z,-1.78
2023-03-04T04:37:47.481Z,-1.77
2023-03-04T04:40:15.190Z,-1.77
2023-03-04T04:42:42.104Z,-1.77
2023-03-04T04:45:09.650Z,-1.80
2023-03-04T04:47:36.789Z,-1.81
2023-03-04T04:50:04.619Z,-1.80
2023-03-04T04:52:31.500Z,-1.83
2023-03-04T04:54:58.756Z,-1.83
2023-03-04T04:57:25.837Z,-1.81
2023-03-04T04:59:53.000Z,-1.89
2023-03-04T05:02:20.440Z,-1.92
2023-03-04T05:04:47.692Z,-1.93
2023-03-04T05:07:14.610Z,-1.93
2023-03-04T05:09:41.807Z,-1.96
2023-03-04T05:12:08.756Z,-2.03
2023-03-04T05:14:35.913Z,-2.05
2023-03-04T05:17:02.857Z,-2.09
2023-03-04T05:19:30.060Z,-2.08
2023-03-04T05:21:56.936Z,-2.07
2023-03-04T05:24:24.194Z,-2.08
2023-03-04T05:26:51.073Z,-2.10
2023-03-04T05:29:18.227Z,-2.03
2023-03-04T05:31:45.102Z,-2.01
2023-03-04T05:34:12.279Z,-1.95
2023-03-04T05:36:39.272Z,-1.89
2023-03-04T05:39:06.556Z,-1.85
2023-03-04T05:41:33.425Z,-1.77
2023-03-04T05:44:00.667Z,-1.71
2023-03-04T05:46:27.651Z,-1.67
2023-03-04T05:48:55.110Z,-1.64
2023-03-04T05:51:23.214Z,-1.58
2023-03-04T05:53:50.626Z,-1.51
2023-03-04T05:56:19.996Z,-1.49
2023-03-04T05:58:47.764Z,-1.36
2023-03-04T06:01:15.629Z,-1.24
2023-03-04T06:03:43.658Z,-1.09
2023-03-04T06:06:10.892Z,-0.74
2023-03-04T06:08:37.790Z,-0.21
2023-03-04T06:11:05.768Z,0.21
2023-03-04T06:13:33.640Z,0.60
2023-03-04T06:16:01.322Z,1.07
2023-03-04T06:18:29.463Z,1.40
2023-03-04T06:21:01.981Z,1.63
2023-03-04T06:23:30.343Z,1.93
2023-03-04T06:25:59.561Z,2.45
2023-03-04T06:28:26.821Z,2.75
2023-03-04T06:30:56.060Z,3.00
2023-03-04T06:33:23.546Z,3.33
2023-03-04T06:35:55.041Z,3.54
2023-03-04T06:38:22.019Z,3.84
2023-03-04T06:40:49.345Z,4.04
2023-03-04T06:43:16.281Z,4.14
2023-03-04T06:45:43.503Z,4.35
2023-03-04T06:48:10.959Z,4.53
2023-03-04T06:50:40.748Z,4.76
2023-03-04T06:53:07.776Z,4.72
2023-03-04T06:55:35.024Z,5.14
2023-03-04T06:58:01.885Z,5.52
2023-03-04T07:00:29.128Z,6.13
2023-03-04T07:02:56.039Z,6.69
2023-03-04T07:05:23.273Z,6.66
2023-03-04T07:07:50.706Z,6.54
2023-03-04T07:10:19.213Z,6.42
2023-03-04T07:12:46.479Z,6.40
2023-03-04T07:15:13.937Z,6.45
2023-03-04T07:17:41.057Z,6.67
2023-03-04T07:20:09.830Z,6.61
2023-03-04T07:22:36.882Z,6.38
2023-03-04T07:25:05.362Z,6.87
2023-03-04T07:27:32.313Z,7.15
2023-03-04T07:29:59.662Z,6.87
2023-03-04T07:32:27.025Z,6.03
2023-03-04T07:34:54.347Z,5.75
2023-03-04T07:37:21.240Z,5.54
2023-03-04T07:39:48.438Z,5.32
2023-03-04T07:42:15.352Z,5.03
2023-03-04T07:44:42.548Z,4.79
2023-03-04T07:47:09.456Z,4.41
2023-03-04T07:49:36.913Z,3.72
2023-03-04T07:52:06.996Z,3.44
2023-03-04T07:54:34.344Z,3.37
2023-03-04T07:57:01.265Z,3.16
2023-03-04T07:59:28.482Z,2.84
2023-03-04T08:01:55.362Z,2.69
2023-03-04T08:04:22.626Z,2.68
2023-03-04T08:06:49.590Z,2.66
2023-03-04T08:09:16.841Z,2.56
2023-03-04T08:11:44.161Z,2.37
2023-03-04T08:14:14.955Z,2.15
2023-03-04T08:16:42.006Z,1.98
2023-03-04T08:19:10.762Z,1.94
2023-03-04T08:21:37.968Z,1.91
2023-03-04T08:24:08.891Z,1.87
2023-03-04T08:26:41.389Z,2.05
2023-03-04T08:29:11.444Z,2.18
2023-03-04T08:31:39.576Z,2.42
2023-03-04T08:34:08.623Z,2.41
2023-03-04T08:36:35.986Z,2.31
2023-03-04T08:39:04.679Z,2.18
2023-03-04T08:41:31.831Z,2.23
2023-03-04T08:44:00.173Z,2.21
2023-03-04T08:46:27.554Z,2.26
2023-03-04T08:48:55.222Z,2.22
2023-03-04T08:51:22.503Z,2.22
2023-03-04T08:53:49.721Z,2.38
2023-03-04T08:56:17.071Z,2.46
2023-03-04T08:58:44.597Z,2.62
2023-03-04T09:01:13.544Z,2.66
2023-03-04T09:03:41.246Z,2.77
2023-03-04T09:06:09.250Z,2.97
2023-03-04T09:08:37.605Z,3.41
2023-03-04T09:11:07.436Z,4.09
2023-03-04T09:13:36.913Z,4.38
2023-03-04T09:16:16.933Z,4.58
2023-03-04T09:18:47.645Z,4.47
2023-03-04T09:21:14.915Z,4.46
2023-03-04T09:23:42.242Z,4.76
2023-03-04T09:26:27.806Z,4.96
2023-03-04T09:28:57.795Z,5.32
2023-03-04T09:31:26.368Z,5.88
2023-03-04T09:33:56.029Z,6.07
2023-03-04T09:36:23.289Z,6.19
2023-03-04T09:38:50.773Z,6.66
2023-03-04T09:41:52.985Z,6.84
2023-03-04T09:44:28.768Z,6.43
2023-03-04T09:47:00.221Z,5.90
2023-03-04T09:49:27.924Z,5.77
2023-03-04T09:52:01.977Z,5.58
2023-03-04T09:54:59.707Z,5.42
2023-03-04T09:57:38.651Z,5.32
2023-03-04T10:00:24.444Z,5.03
2023-03-04T10:03:13.691Z,4.71
2023-03-04T10:06:02.341Z,4.20
2023-03-04T10:08:45.626Z,3.99
2023-03-04T10:11:23.718Z,4.22
2023-03-04T10:14:38.847Z,5.04
2023-03-04T10:17:13.935Z,5.95
2023-03-04T10:19:43.802Z,6.49
2023-03-04T10:22:31.840Z,6.38
2023-03-04T10:25:06.161Z,6.09
2023-03-04T10:27:33.585Z,5.96
2023-03-04T10:30:00.963Z,5.65
2023-03-04T10:32:28.277Z,5.73
2023-03-04T10:34:55.197Z,6.10
2023-03-04T10:37:22.507Z,6.41
2023-03-04T10:39:50.687Z,6.67
2023-03-04T10:42:19.024Z,6.86
2023-03-04T10:44:58.989Z,7.03
2023-03-04T10:47:32.814Z,7.46
2023-03-04T10:50:01.594Z,8.00
2023-03-04T10:52:53.344Z,8.28
2023-03-04T10:55:25.079Z,8.70
2023-03-04T10:57:57.779Z,8.79
2023-03-04T11:00:34.894Z,8.03
2023-03-04T11:03:29.692Z,7.24
2023-03-04T11:06:05.918Z,7.02
2023-03-04T11:08:33.198Z,6.82
2023-03-04T11:11:00.148Z,7.15
2023-03-04T11:13:27.683Z,7.55
2023-03-04T11:16:00.934Z,8.00
2023-03-04T11:18:54.063Z,8.27
2023-03-04T11:21:27.265Z,8.57
2023-03-04T11:24:02.655Z,8.43
2023-03-04T11:26:47.598Z,8.13
2023-03-04T11:29:37.909Z,8.06
2023-03-04T11:32:14.330Z,7.93
2023-03-04T11:34:48.920Z,7.87
2023-03-04T11:37:26.848Z,7.38
2023-03-04T11:39:59.602Z,6.68
2023-03-04T11:42:47.269Z,6.34
2023-03-04T11:45:28.181Z,6.27
2023-03-04T11:48:09.039Z,6.21
2023-03-04T11:50:50.614Z,6.12
2023-03-04T11:53:32.666Z,6.12
2023-03-04T11:56:10.700Z,5.97
2023-03-04T11:59:04.706Z,5.71
2023-03-04T12:02:13.566Z,5.87
2023-03-04T12:04:43.159Z,5.86
2023-03-04T12:07:13.191Z,5.88
2023-03-04T12:10:06.058Z,5.90
2023-03-04T12:13:08.545Z,5.69
2023-03-04T12:15:50.040Z,5.45
2023-03-04T12:18:36.648Z,5.53
2023-03-04T12:21:23.444Z,5.02
2023-03-04T12:24:09.320Z,4.62
2023-03-04T12:26:57.667Z,4.73
2023-03-04T12:29:30.916Z,4.96
2023-03-04T12:32:10.031Z,4.81
2023-03-04T12:34:47.604Z,4.73
2023-03-04T12:37:36.516Z,5.12
2023-03-04T12:40:07.109Z,4.99
2023-03-04T12:43:01.179Z,4.73
2023-03-04T12:45:45.608Z,4.70
2023-03-04T12:48:39.498Z,4.57
2023-03-04T12:51:36.420Z,4.24
2023-03-04T12:54:16.993Z,3.86
2023-03-04T12:57:13.708Z,3.64
2023-03-04T12:59:45.248Z,3.50
2023-03-04T13:02:54.250Z,3.30
2023-03-04T13:05:30.203Z,3.25
2023-03-04T13:08:11.343Z,2.97
2023-03-04T13:10:38.358Z,2.79
2023-03-04T13:13:05.880Z,2.74
2023-03-04T13:15:39.611Z,2.59
2023-03-04T13:18:33.539Z,2.45
2023-03-04T13:21:13.664Z,2.41
2023-03-04T13:23:42.413Z,2.37
2023-03-04T13:26:18.616Z,2.20
2023-03-04T13:28:46.191Z,2.08
2023-03-04T13:31:17.026Z,2.01
2023-03-04T13:33:45.931Z,2.01
2023-03-04T13:36:31.044Z,1.93
2023-03-04T13:39:21.062Z,1.80
2023-03-04T13:41:50.157Z,1.83
2023-03-04T13:44:44.779Z,1.85
2023-03-04T13:47:18.741Z,1.88
2023-03-04T13:49:46.124Z,1.81
2023-03-04T13:52:43.372Z,1.85
2023-03-04T13:55:35.035Z,1.81
2023-03-04T13:58:13.463Z,1.82
2023-03-04T14:00:48.831Z,1.77
2023-03-04T14:03:21.794Z,1.77
2023-03-04T14:06:08.604Z,1.84
2023-03-04T14:08:35.502Z,1.73
2023-03-04T14:11:02.846Z,1.66
2023-03-04T14:13:29.983Z,1.69
2023-03-04T14:15:59.792Z,1.64
2023-03-04T14:18:28.253Z,1.66
2023-03-04T14:20:59.211Z,1.59
2023-03-04T14:23:26.112Z,1.59
2023-03-04T14:26:23.597Z,1.54
2023-03-04T14:28:52.920Z,1.56
2023-03-04T14:31:24.149Z,1.55
2023-03-04T14:34:02.065Z,1.52
2023-03-04T14:36:32.951Z,1.47
2023-03-04T14:39:02.979Z,1.41
2023-03-04T14:41:38.070Z,1.42
2023-03-04T14:44:48.510Z,1.40
2023-03-04T14:47:27.842Z,1.40
2023-03-04T14:49:55.149Z,1.41
2023-03-04T14:52:39.287Z,1.43
2023-03-04T14:55:15.092Z,1.40
2023-03-04T14:57:44.552Z,1.37
2023-03-04T15:00:20.236Z,1.40
2023-03-04T15:02:52.854Z,1.40
2023-03-04T15:05:26.379Z,1.38
2023-03-04T15:07:56.745Z,1.42
2023-03-04T15:10:41.577Z,1.41
2023-03-04T15:13:09.781Z,1.43
2023-03-04T15:15:45.377Z,1.49
2023-03-04T15:18:27.228Z,1.47
2023-03-04T15:20:57.225Z,1.47
2023-03-04T15:23:25.581Z,1.41
2023-03-04T15:25:58.543Z,1.39
2023-03-04T15:28:27.204Z,1.37
2023-03-04T15:30:54.547Z,1.42
2023-03-04T15:33:22.010Z,1.37
2023-03-04T15:35:56.335Z,1.38
2023-03-04T15:38:24.337Z,1.36
2023-03-04T15:40:54.274Z,1.37
2023-03-04T15:43:23.393Z,1.33
2023-03-04T15:45:51.783Z,1.32
2023-03-04T15:48:19.998Z,1.34
2023-03-04T15:50:55.852Z,1.32
2023-03-04T15:53:33.059Z,1.32
2023-03-04T15:56:01.079Z,1.30
2023-03-04T15:58:29.733Z,1.32
2023-03-04T16:00:56.719Z,1.34
2023-03-04T16:03:23.988Z,1.32
2023-03-04T16:05:53.126Z,1.30
2023-03-04T16:08:22.447Z,1.30
2023-03-04T16:10:50.297Z,1.29
2023-03-04T16:13:20.183Z,1.30
2023-03-04T16:15:47.617Z,1.27
2023-03-04T16:18:15.999Z,1.30
2023-03-04T16:20:48.341Z,1.26
2023-03-04T16:23:21.137Z,1.24
2023-03-04T16:25:50.728Z,1.23
2023-03-04T16:28:18.088Z,1.23
2023-03-04T16:30:45.262Z,1.25
2023-03-04T16:33:12.679Z,1.28
2023-03-04T16:35:39.995Z,1.29
2023-03-04T16:38:28.637Z,1.30
2023-03-04T16:40:57.063Z,1.32
2023-03-04T16:43:25.194Z,1.31
2023-03-04T16:45:52.455Z,1.31
2023-03-04T16:48:20.475Z,1.32
2023-03-04T16:50:47.748Z,1.36
2023-03-04T16:53:36.032Z,1.36
2023-03-04T16:56:21.321Z,1.41
2023-03-04T16:58:48.925Z,1.43
2023-03-04T17:01:26.085Z,1.33
2023-03-04T17:03:54.475Z,1.30
2023-03-04T17:06:22.668Z,1.24
2023-03-04T17:08:49.961Z,1.27
2023-03-04T17:11:20.232Z,1.19
2023-03-04T17:13:48.176Z,1.14
2023-03-04T17:16:15.758Z,1.09
2023-03-04T17:18:45.784Z,1.04
2023-03-04T17:21:16.507Z,1.02
2023-03-04T17:23:43.873Z,1.01
2023-03-04T17:26:10.929Z,1.00
2023-03-04T17:28:38.344Z,1.00
2023-03-04T17:31:12.848Z,0.99
2023-03-04T17:33:40.122Z,0.95
2023-03-04T17:36:09.910Z,0.90
2023-03-04T17:38:38.880Z,0.90
2023-03-04T17:41:07.904Z,0.88
2023-03-04T17:43:35.886Z,0.89
2023-03-04T17:46:07.863Z,0.89
2023-03-04T17:48:35.464Z,0.88
2023-03-04T17:51:02.486Z,0.92
2023-03-04T17:53:29.785Z,1.00
2023-03-04T17:56:02.260Z,1.03
2023-03-04T17:58:31.637Z,1.07
2023-03-04T18:01:06.785Z,1.10
2023-03-04T18:03:33.982Z,1.15
2023-03-04T18:06:00.945Z,1.19
2023-03-04T18:08:28.169Z,1.24
2023-03-04T18:10:55.145Z,1.30
2023-03-04T18:13:22.324Z,1.38
2023-03-04T18:15:49.489Z,1.42
2023-03-04T18:18:16.729Z,1.50
2023-03-04T18:20:43.619Z,1.55
2023-03-04T18:23:10.820Z,1.56
2023-03-04T18:25:37.772Z,1.56
2023-03-04T18:28:05.389Z,1.59
2023-03-04T18:30:32.542Z,1.61
2023-03-04T18:33:00.240Z,1.61
2023-03-04T18:35:27.215Z,1.62
2023-03-04T18:37:54.553Z,1.64
2023-03-04T18:40:21.427Z,1.65
2023-03-04T18:42:48.724Z,1.67
2023-03-04T18:45:17.216Z,1.72
2023-03-04T18:47:48.851Z,1.73
2023-03-04T18:50:16.343Z,1.73
2023-03-04T18:52:44.507Z,1.70
2023-03-04T18:55:11.520Z,1.76
2023-03-04T18:57:45.945Z,1.72
2023-03-04T19:00:20.549Z,1.72
2023-03-04T19:02:52.621Z,1.73
2023-03-04T19:05:30.621Z,1.75
2023-03-04T19:07:57.919Z,1.80
2023-03-04T19:10:25.930Z,1.81
2023-03-04T19:12:53.168Z,1.91
2023-03-04T19:15:20.275Z,1.96
2023-03-04T19:17:47.507Z,1.98
2023-03-04T19:20:15.771Z,2.01
2023-03-04T19:22:43.553Z,2.05
2023-03-04T19:25:12.705Z,2.09
2023-03-04T19:27:40.020Z,2.15
2023-03-04T19:30:07.729Z,2.18
2023-03-04T19:32:35.271Z,2.21
2023-03-04T19:35:02.270Z,2.25
2023-03-04T19:37:29.525Z,2.23
2023-03-04T19:39:56.629Z,2.27
2023-03-04T19:42:24.352Z,2.25
2023-03-04T19:44:51.318Z,2.28
2023-03-04T19:47:18.653Z,2.26
2023-03-04T19:49:45.730Z,2.26
2023-03-04T19:52:12.884Z,2.25
2023-03-04T19:54:39.944Z,2.20
2023-03-04T19:57:07.192Z,2.16
2023-03-04T19:59:35.190Z,2.14
2023-03-04T20:02:03.070Z,2.14
2023-03-04T20:04:30.059Z,2.08
2023-03-04T20:06:57.407Z,1.91
2023-03-04T20:09:24.305Z,1.89
2023-03-04T20:11:58.239Z,1.84
2023-03-04T20:14:27.562Z,1.81
2023-03-04T20:17:00.795Z,1.70
2023-03-04T20:19:27.905Z,1.62
2023-03-04T20:21:56.419Z,1.53
2023-03-04T20:24:24.593Z,1.45
2023-03-04T20:26:52.380Z,1.40
2023-03-04T20:29:19.413Z,1.41
2023-03-04T20:31:46.788Z,1.35
2023-03-04T20:34:14.714Z,1.29
2023-03-04T20:36:41.923Z,1.22
2023-03-04T20:39:27.606Z,1.19
2023-03-04T20:41:59.251Z,1.12
2023-03-04T20:44:26.706Z,1.12
2023-03-04T20:46:53.997Z,1.08
2023-03-04T20:49:27.083Z,1.03
2023-03-04T20:51:59.599Z,1.04
2023-03-04T20:54:26.453Z,1.06
2023-03-04T20:56:53.690Z,1.02
2023-03-04T20:59:20.692Z,1.01
2023-03-04T21:01:48.191Z,1.00
2023-03-04T21:04:15.346Z,0.96
2023-03-04T21:06:43.756Z,0.93
2023-03-04T21:09:14.735Z,0.98
2023-03-04T21:11:42.914Z,0.99
2023-03-04T21:14:25.824Z,0.98
2023-03-04T21:16:55.128Z,0.99
2023-03-04T21:19:25.602Z,0.99
2023-03-04T21:21:54.184Z,0.97
2023-03-04T21:24:24.986Z,0.98
2023-03-04T21:26:52.515Z,1.00
2023-03-04T21:29:22.170Z,0.97
2023-03-04T21:31:52.981Z,0.93
2023-03-04T21:34:21.908Z,0.91
2023-03-04T21:36:49.220Z,0.86
2023-03-04T21:39:18.915Z,0.88
2023-03-04T21:41:46.674Z,0.85
2023-03-04T21:44:23.070Z,0.83
2023-03-04T21:46:57.161Z,0.85
2023-03-04T21:49:24.497Z,0.83
2023-03-04T21:51:51.777Z,0.83
2023-03-04T21:54:18.922Z,0.77
2023-03-04T21:56:46.230Z,0.80
2023-03-04T21:59:14.382Z,0.78
2023-03-04T22:01:44.085Z,0.78
2023-03-04T22:04:11.140Z,0.78
2023-03-04T22:06:40.089Z,0.76
2023-03-04T22:09:08.277Z,0.76
2023-03-04T22:11:35.479Z,0.75
2023-03-04T22:14:03.290Z,0.73
2023-03-04T22:16:31.841Z,0.75
2023-03-04T22:18:59.676Z,0.78
2023-03-04T22:21:26.941Z,0.80
2023-03-04T22:23:53.864Z,0.79
2023-03-04T22:26:29.985Z,0.79
2023-03-04T22:28:57.337Z,0.75
2023-03-04T22:31:30.934Z,0.74
2023-03-04T22:34:02.865Z,0.73
2023-03-04T22:36:31.921Z,0.72
2023-03-04T22:38:59.198Z,0.74
2023-03-04T22:41:26.400Z,0.76
2023-03-04T22:43:53.602Z,0.81
2023-03-04T22:46:24.752Z,0.76
2023-03-04T22:48:53.704Z,0.70
2023-03-04T22:51:22.164Z,0.64
2023-03-04T22:53:50.572Z,0.54
2023-03-04T22:56:19.255Z,0.45
2023-03-04T22:58:47.071Z,0.37
2023-03-04T23:01:16.134Z,0.26
2023-03-04T23:03:45.102Z,0.18
2023-03-04T23:06:15.421Z,0.14
2023-03-04T23:08:44.591Z,0.11
2023-03-04T23:11:15.529Z,0.07
2023-03-04T23:13:42.905Z,0.05
2023-03-04T23:16:12.101Z,0.02
2023-03-04T23:18:40.705Z,-0.02
2023-03-04T23:21:09.913Z,-0.06
2023-03-04T23:23:37.445Z,-0.08
2023-03-04T23:26:05.371Z,-0.08
2023-03-04T23:28:32.688Z,-0.10
2023-03-04T23:31:00.288Z,-0.09
2023-03-04T23:33:27.299Z,-0.09
2023-03-04T23:35:54.519Z,-0.09
2023-03-04T23:38:21.427Z,-0.08
2023-03-04T23:40:48.624Z,-0.07
2023-03-04T23:43:15.591Z,-0.09
2023-03-04T23:45:42.885Z,-0.09
2023-03-04T23:48:09.844Z,-0.10
2023-03-04T23:50:38.288Z,-0.11
2023-03-04T23:53:05.213Z,-0.13
2023-03-04T23:55:34.322Z,-0.15
2023-03-04T23:58:01.254Z,-0.20
